Time;durP1;ratioP1;P1;durP2;ratioP2;P2;SDS_P1;SDS_P2;PMS_P1;PMS_P2;Temp;Humidity;BMP_temperature;BMP_pressure;BME280_temperature;BME280_humidity;BME280_pressure;Samples;Min_cycle;Max_cycle;Signal;HPM_P1;HPM_P2
2023/08/22 00:01:38;;;;;;;5.88;5.47;;;;;;;;;;5033288;28;20037;-73
2023/08/22 00:04:05;;;;;;;5.85;5.45;;;;;;;;;;5033504;28;20029;-72
2023/08/22 00:06:30;;;;;;;5.85;5.35;;;;;;;;;;5033227;28;20026;-71
2023/08/22 00:08:56;;;;;;;6.25;5.75;;;;;;;;;;5035254;28;20492;-71
2023/08/22 00:11:21;;;;;;;6.60;6.00;;;;;;;;;;5036581;28;20107;-73
2023/08/22 00:13:46;;;;;;;6.15;5.65;;;;;;;;;;5002455;28;20042;-73
2023/08/22 00:16:12;;;;;;;6.60;5.75;;;;;;;;;;5036729;28;20034;-73
2023/08/22 00:18:37;;;;;;;5.82;5.32;;;;;;;;;;5036338;28;20034;-73
2023/08/22 00:21:02;;;;;;;5.68;5.28;;;;;;;;;;5036391;28;20112;-71
2023/08/22 00:23:29;;;;;;;5.93;5.50;;;;;;;;;;5036298;28;20112;-71
2023/08/22 00:25:54;;;;;;;7.05;5.20;;;;;;;;;;5036787;28;20057;-71
2023/08/22 00:28:19;;;;;;;5.70;5.22;;;;;;;;;;5018528;28;20132;-71
2023/08/22 00:30:45;;;;;;;5.72;5.22;;;;;;;;;;5036178;28;20088;-71
2023/08/22 00:33:10;;;;;;;6.57;6.07;;;;;;;;;;5036431;28;20037;-71
2023/08/22 00:35:35;;;;;;;6.22;5.72;;;;;;;;;;5036376;28;20029;-71
2023/08/22 00:38:01;;;;;;;9.00;5.97;;;;;;;;;;5018176;28;20091;-71
2023/08/22 00:40:27;;;;;;;5.82;5.30;;;;;;;;;;5036047;28;20049;-71
2023/08/22 00:42:52;;;;;;;5.80;5.40;;;;;;;;;;5018071;28;20128;-71
2023/08/22 00:45:18;;;;;;;5.30;4.88;;;;;;;;;;5018190;28;20026;-72
2023/08/22 00:47:43;;;;;;;5.43;4.88;;;;;;;;;;5018141;28;20080;-72
2023/08/22 00:50:10;;;;;;;5.43;4.88;;;;;;;;;;5001863;28;20080;-71
2023/08/22 00:52:36;;;;;;;6.68;4.88;;;;;;;;;;5018077;28;20025;-72
2023/08/22 00:55:01;;;;;;;5.15;4.78;;;;;;;;;;5018151;28;20029;-74
2023/08/22 00:57:27;;;;;;;5.57;4.78;;;;;;;;;;5035739;28;20030;-74
2023/08/22 00:59:53;;;;;;;5.68;5.28;;;;;;;;;;5017900;28;20397;-74
2023/08/22 01:02:21;;;;;;;5.50;5.00;;;;;;;;;;5035903;28;20033;-74
2023/08/22 01:04:46;;;;;;;5.82;5.32;;;;;;;;;;5035870;28;20025;-74
2023/08/22 01:07:16;;;;;;;5.60;5.20;;;;;;;;;;5035506;28;20083;-74
2023/08/22 01:09:46;;;;;;;5.78;5.35;;;;;;;;;;5035787;28;20033;-74
2023/08/22 01:12:11;;;;;;;5.10;4.67;;;;;;;;;;5017737;28;20440;-74
2023/08/22 01:14:41;;;;;;;6.05;5.63;;;;;;;;;;5017626;28;20306;-74
2023/08/22 01:17:06;;;;;;;6.45;5.47;;;;;;;;;;5001335;28;20033;-74
2023/08/22 01:19:32;;;;;;;5.75;5.25;;;;;;;;;;5016859;28;20070;-74
2023/08/22 01:21:57;;;;;;;5.30;4.80;;;;;;;;;;5017526;28;20033;-74
2023/08/22 01:24:22;;;;;;;4.55;4.35;;;;;;;;;;5017489;28;20043;-73
2023/08/22 01:26:48;;;;;;;5.70;4.90;;;;;;;;;;5017403;28;20377;-73
2023/08/22 01:29:23;;;;;;;5.25;4.75;;;;;;;;;;5035670;28;20040;-74
2023/08/22 01:31:58;;;;;;;5.07;4.78;;;;;;;;;;5035915;28;20428;-73
2023/08/22 01:34:28;;;;;;;4.78;4.47;;;;;;;;;;5035305;28;20034;-73
2023/08/22 01:36:57;;;;;;;5.40;4.55;;;;;;;;;;5035271;28;20044;-70
2023/08/22 01:39:26;;;;;;;4.82;4.53;;;;;;;;;;5017130;28;20163;-70
2023/08/22 01:41:51;;;;;;;5.07;4.72;;;;;;;;;;5017018;28;20041;-70
2023/08/22 01:44:17;;;;;;;4.93;4.60;;;;;;;;;;5017059;28;20029;-70
2023/08/22 01:46:42;;;;;;;5.13;4.72;;;;;;;;;;5035316;28;20075;-72
2023/08/22 01:49:07;;;;;;;5.32;4.90;;;;;;;;;;5017011;28;20037;-72
2023/08/22 01:51:33;;;;;;;6.25;5.13;;;;;;;;;;5016951;28;20057;-74
2023/08/22 01:53:59;;;;;;;5.85;5.35;;;;;;;;;;5016907;28;20033;-73
2023/08/22 01:56:24;;;;;;;6.85;6.13;;;;;;;;;;5034835;28;20017;-73
2023/08/22 01:58:50;;;;;;;5.97;5.40;;;;;;;;;;5016722;28;20033;-71
2023/08/22 02:01:16;;;;;;;5.47;5.07;;;;;;;;;;5016783;28;20448;-72
2023/08/22 02:03:42;;;;;;;5.80;5.30;;;;;;;;;;5034462;28;20061;-72
2023/08/22 02:06:07;;;;;;;5.82;5.30;;;;;;;;;;5034686;28;20026;-61
2023/08/22 02:08:33;;;;;;;5.88;5.22;;;;;;;;;;5023845;23;20057;-62
2023/08/22 02:10:58;;;;;;;7.15;5.20;;;;;;;;;;5014878;28;20421;-61
2023/08/22 02:13:24;;;;;;;5.50;5.00;;;;;;;;;;4997570;28;20044;-60
2023/08/22 02:15:49;;;;;;;5.43;5.03;;;;;;;;;;4996933;28;20489;-64
2023/08/22 02:18:15;;;;;;;5.18;4.68;;;;;;;;;;5013141;28;20037;-64
2023/08/22 02:20:41;;;;;;;5.35;4.95;;;;;;;;;;5014467;28;20426;-63
2023/08/22 02:23:08;;;;;;;4.82;4.53;;;;;;;;;;4996742;28;20110;-63
2023/08/22 02:25:35;;;;;;;4.40;4.10;;;;;;;;;;4996757;28;20120;-63
2023/08/22 02:28:01;;;;;;;5.18;4.75;;;;;;;;;;5014581;28;20030;-63
2023/08/22 02:30:28;;;;;;;4.80;4.50;;;;;;;;;;5014842;28;20178;-63
2023/08/22 02:32:53;;;;;;;4.93;4.53;;;;;;;;;;5013609;28;20030;-63
2023/08/22 02:35:19;;;;;;;4.78;4.47;;;;;;;;;;5014190;28;20430;-63
2023/08/22 02:37:45;;;;;;;4.88;4.57;;;;;;;;;;5014349;28;20026;-63
2023/08/22 02:40:10;;;;;;;4.88;4.50;;;;;;;;;;5012906;28;20092;-63
2023/08/22 02:42:36;;;;;;;4.85;4.45;;;;;;;;;;5012872;28;20124;-63
2023/08/22 02:45:02;;;;;;;4.95;4.55;;;;;;;;;;4996604;28;20164;-63
2023/08/22 02:47:28;;;;;;;4.55;4.25;;;;;;;;;;4996451;28;20436;-63
2023/08/22 02:49:53;;;;;;;4.97;4.55;;;;;;;;;;5014039;28;20026;-63
2023/08/22 02:52:18;;;;;;;5.10;4.80;;;;;;;;;;5012665;28;20079;-61
2023/08/22 02:54:44;;;;;;;4.80;4.32;;;;;;;;;;4996427;28;20033;-60
2023/08/22 02:57:10;;;;;;;5.05;4.75;;;;;;;;;;5012646;28;20485;-61
2023/08/22 02:59:35;;;;;;;4.35;4.07;;;;;;;;;;5014097;28;20033;-61
2023/08/22 03:02:01;;;;;;;5.47;4.40;;;;;;;;;;5014141;28;20022;-62
2023/08/22 03:04:26;;;;;;;4.60;4.30;;;;;;;;;;5012561;28;20438;-62
2023/08/22 03:06:52;;;;;;;4.95;4.32;;;;;;;;;;5012604;28;20038;-61
2023/08/22 03:09:17;;;;;;;4.50;4.22;;;;;;;;;;4997966;28;20045;-60
2023/08/22 03:11:43;;;;;;;4.95;4.55;;;;;;;;;;5033533;28;20083;-61
2023/08/22 03:14:08;;;;;;;4.88;4.57;;;;;;;;;;5033474;28;20038;-60
2023/08/22 03:16:33;;;;;;;5.22;4.75;;;;;;;;;;5015759;28;20072;-61
2023/08/22 03:18:59;;;;;;;5.18;4.75;;;;;;;;;;5015701;28;20366;-61
2023/08/22 03:21:24;;;;;;;4.63;4.32;;;;;;;;;;5032461;28;20512;-61
2023/08/22 03:23:51;;;;;;;6.30;4.65;;;;;;;;;;5032441;28;20089;-60
2023/08/22 03:26:17;;;;;;;4.45;4.15;;;;;;;;;;5032427;28;20026;-61
2023/08/22 03:28:42;;;;;;;4.55;4.25;;;;;;;;;;5033626;28;20119;-60
2023/08/22 03:31:08;;;;;;;5.57;4.15;;;;;;;;;;5032305;28;20021;-62
2023/08/22 03:33:34;;;;;;;4.32;4.00;;;;;;;;;;5015569;28;20032;-62
2023/08/22 03:36:03;;;;;;;4.57;4.18;;;;;;;;;;5032037;28;20108;-62
2023/08/22 03:38:29;;;;;;;5.10;4.60;;;;;;;;;;5032170;28;20055;-62
2023/08/22 03:40:55;;;;;;;4.93;4.43;;;;;;;;;;5031986;28;20030;-61
2023/08/22 03:43:21;;;;;;;4.65;4.30;;;;;;;;;;5017004;28;20048;-61
2023/08/22 03:45:47;;;;;;;4.90;4.40;;;;;;;;;;5019344;28;20469;-60
2023/08/22 03:48:12;;;;;;;4.93;4.50;;;;;;;;;;5035797;28;20029;-62
2023/08/22 03:50:39;;;;;;;5.30;4.40;;;;;;;;;;5037545;28;20043;-61
2023/08/22 03:53:05;;;;;;;4.10;3.80;;;;;;;;;;5035737;28;20037;-61
2023/08/22 03:55:31;;;;;;;4.32;3.97;;;;;;;;;;5019140;28;20454;-62
2023/08/22 03:57:57;;;;;;;4.00;3.80;;;;;;;;;;5036794;28;20104;-62
2023/08/22 04:00:23;;;;;;;4.45;4.15;;;;;;;;;;5035583;28;20413;-61
2023/08/22 04:02:48;;;;;;;4.70;4.40;;;;;;;;;;5035529;28;20042;-61
2023/08/22 04:05:13;;;;;;;3.80;3.60;;;;;;;;;;5035481;28;20470;-60
2023/08/22 04:07:39;;;;;;;4.18;3.88;;;;;;;;;;5035190;28;20513;-60
2023/08/22 04:10:04;;;;;;;3.70;3.50;;;;;;;;;;5035382;28;20029;-60
2023/08/22 04:12:30;;;;;;;5.82;4.03;;;;;;;;;;5018138;28;20049;-61
2023/08/22 04:14:56;;;;;;;5.90;4.45;;;;;;;;;;5018304;28;20120;-66
2023/08/22 04:17:21;;;;;;;5.30;4.63;;;;;;;;;;5018448;28;20156;-61
2023/08/22 04:19:47;;;;;;;4.57;4.18;;;;;;;;;;5001593;28;20037;-69
2023/08/22 04:22:12;;;;;;;4.65;4.32;;;;;;;;;;5018277;28;20033;-61
2023/08/22 04:24:37;;;;;;;6.45;4.40;;;;;;;;;;5018177;28;20366;-61
2023/08/22 04:27:03;;;;;;;4.13;3.83;;;;;;;;;;5017859;28;20091;-70
2023/08/22 04:29:28;;;;;;;4.65;4.32;;;;;;;;;;5017981;28;20397;-70
2023/08/22 04:31:53;;;;;;;5.35;4.97;;;;;;;;;;5018484;28;20029;-61
2023/08/22 04:34:19;;;;;;;4.82;4.53;;;;;;;;;;5001090;28;20028;-62
2023/08/22 04:36:51;;;;;;;5.10;4.70;;;;;;;;;;5018051;28;20488;-61
2023/08/22 04:39:17;;;;;;;4.57;4.20;;;;;;;;;;5017654;28;20033;-61
2023/08/22 04:41:44;;;;;;;4.72;4.38;;;;;;;;;;5016617;28;20025;-71
2023/08/22 04:44:43;;;;;;;4.43;4.13;;;;;;;;;;4998141;28;20104;-61
2023/08/22 04:47:08;;;;;;;5.70;4.30;;;;;;;;;;5000072;28;20433;-62
2023/08/22 04:49:33;;;;;;;4.65;4.35;;;;;;;;;;5034076;28;20021;-62
2023/08/22 04:51:59;;;;;;;6.50;4.53;;;;;;;;;;4981660;28;20034;-61
2023/08/22 04:54:24;;;;;;;5.03;4.63;;;;;;;;;;5029599;28;20277;-62
2023/08/22 04:56:50;;;;;;;5.90;4.32;;;;;;;;;;5024174;28;20032;-61
2023/08/22 04:59:15;;;;;;;4.57;4.25;;;;;;;;;;5031197;28;20546;-71
2023/08/22 05:01:40;;;;;;;5.55;4.78;;;;;;;;;;5015102;28;20021;-71
2023/08/22 05:04:07;;;;;;;6.82;4.88;;;;;;;;;;5005418;28;20495;-71
2023/08/22 05:06:32;;;;;;;5.13;4.63;;;;;;;;;;5030019;28;20099;-71
2023/08/22 05:08:59;;;;;;;4.97;4.60;;;;;;;;;;5006005;28;20432;-61
2023/08/22 05:11:25;;;;;;;4.75;4.35;;;;;;;;;;4988765;28;20030;-71
2023/08/22 05:13:50;;;;;;;4.95;4.22;;;;;;;;;;5024542;28;20032;-71
2023/08/22 05:16:15;;;;;;;5.05;4.35;;;;;;;;;;5023411;28;20024;-71
2023/08/22 05:18:42;;;;;;;5.38;4.97;;;;;;;;;;5005781;28;20040;-71
2023/08/22 05:21:07;;;;;;;4.95;4.65;;;;;;;;;;5024531;28;20026;-61
2023/08/22 05:23:32;;;;;;;4.82;4.43;;;;;;;;;;5030066;28;20018;-71
2023/08/22 05:25:58;;;;;;;5.38;4.93;;;;;;;;;;5005776;28;20076;-71
2023/08/22 05:28:23;;;;;;;4.97;4.63;;;;;;;;;;5024320;28;20520;-71
2023/08/22 05:30:48;;;;;;;5.43;4.63;;;;;;;;;;5022350;28;20477;-71
2023/08/22 05:33:14;;;;;;;6.00;5.50;;;;;;;;;;5006437;28;20022;-71
2023/08/22 05:35:39;;;;;;;7.20;4.97;;;;;;;;;;5030666;28;20064;-71
2023/08/22 05:38:05;;;;;;;5.80;4.90;;;;;;;;;;5004510;28;20052;-61
2023/08/22 05:40:31;;;;;;;5.93;5.22;;;;;;;;;;5026541;28;20025;-61
2023/08/22 05:42:56;;;;;;;5.78;5.35;;;;;;;;;;5024674;28;20032;-71
2023/08/22 05:45:22;;;;;;;6.18;5.68;;;;;;;;;;5016348;28;20082;-71
2023/08/22 05:47:49;;;;;;;6.50;6.00;;;;;;;;;;5016903;28;20026;-71
2023/08/22 05:50:14;;;;;;;7.78;5.47;;;;;;;;;;5016923;28;20029;-71
2023/08/22 05:52:40;;;;;;;6.15;5.45;;;;;;;;;;5016667;28;20025;-71
2023/08/22 05:55:06;;;;;;;7.05;5.40;;;;;;;;;;5034033;28;20088;-71
2023/08/22 05:57:32;;;;;;;5.25;4.93;;;;;;;;;;5010141;28;20045;-71
2023/08/22 05:59:58;;;;;;;5.93;5.43;;;;;;;;;;5006064;28;20029;-71
2023/08/22 06:02:24;;;;;;;6.10;5.68;;;;;;;;;;5005485;28;20022;-71
2023/08/22 06:04:49;;;;;;;5.90;5.35;;;;;;;;;;5004585;28;20021;-71
2023/08/22 06:07:14;;;;;;;6.72;5.07;;;;;;;;;;5005989;28;20479;-71
2023/08/22 06:09:40;;;;;;;5.25;4.85;;;;;;;;;;5022466;28;20386;-71
2023/08/22 06:12:06;;;;;;;6.03;5.43;;;;;;;;;;5004890;28;20033;-71
2023/08/22 06:14:32;;;;;;;6.38;5.63;;;;;;;;;;5005253;28;20079;-65
2023/08/22 06:16:58;;;;;;;5.20;4.80;;;;;;;;;;5016275;28;20039;-61
2023/08/22 06:19:24;;;;;;;5.68;5.07;;;;;;;;;;5016441;28;20038;-61
2023/08/22 06:21:50;;;;;;;5.10;4.78;;;;;;;;;;5034232;28;20033;-61
2023/08/22 06:24:16;;;;;;;5.57;5.07;;;;;;;;;;5016377;28;20022;-68
2023/08/22 06:26:41;;;;;;;5.47;5.18;;;;;;;;;;5016363;28;20064;-61
2023/08/22 06:29:06;;;;;;;8.07;7.43;;;;;;;;;;5034396;28;20025;-61
2023/08/22 06:31:32;;;;;;;4.70;4.30;;;;;;;;;;5016002;28;20017;-60
2023/08/22 06:33:57;;;;;;;4.57;4.25;;;;;;;;;;5016515;28;20030;-61
2023/08/22 06:36:23;;;;;;;4.15;3.80;;;;;;;;;;5016233;28;20029;-61
2023/08/22 06:38:48;;;;;;;4.43;3.85;;;;;;;;;;5033929;28;20029;-61
2023/08/22 06:41:16;;;;;;;4.25;3.83;;;;;;;;;;5034236;28;20025;-61
2023/08/22 06:43:41;;;;;;;4.88;4.43;;;;;;;;;;5033879;28;20033;-61
2023/08/22 06:46:07;;;;;;;3.97;3.67;;;;;;;;;;5016060;28;20017;-61
2023/08/22 06:48:32;;;;;;;4.13;3.83;;;;;;;;;;5016105;28;20099;-61
2023/08/22 06:50:57;;;;;;;4.25;3.90;;;;;;;;;;5016030;28;20029;-61
2023/08/22 06:53:23;;;;;;;4.05;3.75;;;;;;;;;;5034140;28;20473;-61
2023/08/22 06:55:48;;;;;;;4.85;3.90;;;;;;;;;;5034048;28;20026;-61
2023/08/22 06:58:14;;;;;;;4.07;3.78;;;;;;;;;;5033604;28;20453;-61
2023/08/22 07:00:40;;;;;;;3.85;3.40;;;;;;;;;;5033692;28;20021;-60
2023/08/22 07:03:05;;;;;;;5.60;3.70;;;;;;;;;;5033896;28;20021;-60
2023/08/22 07:05:31;;;;;;;3.63;3.33;;;;;;;;;;5015872;28;20037;-60
2023/08/22 07:07:56;;;;;;;3.35;3.13;;;;;;;;;;5033345;28;20397;-60
2023/08/22 07:10:22;;;;;;;3.28;3.03;;;;;;;;;;5033818;28;20358;-60
2023/08/22 07:12:47;;;;;;;3.20;3.00;;;;;;;;;;5034046;28;20413;-60
2023/08/22 07:15:12;;;;;;;3.08;2.88;;;;;;;;;;5033485;28;20022;-60
2023/08/22 07:17:38;;;;;;;3.55;2.65;;;;;;;;;;5033929;28;20037;-60
2023/08/22 07:20:03;;;;;;;3.10;2.90;;;;;;;;;;5037880;28;20511;-60
2023/08/22 07:22:28;;;;;;;3.40;3.20;;;;;;;;;;5037965;28;20076;-61
2023/08/22 07:24:54;;;;;;;3.20;3.00;;;;;;;;;;5019479;28;20033;-68
2023/08/22 07:27:21;;;;;;;5.60;3.00;;;;;;;;;;5020018;28;20029;-68
2023/08/22 07:29:46;;;;;;;3.65;2.58;;;;;;;;;;5020149;28;20025;-68
2023/08/22 07:32:12;;;;;;;3.67;3.30;;;;;;;;;;5037527;28;20099;-68
2023/08/22 07:34:37;;;;;;;3.10;2.90;;;;;;;;;;5037665;28;20057;-68
2023/08/22 07:37:03;;;;;;;2.90;2.70;;;;;;;;;;5037052;28;20037;-68
2023/08/22 07:39:28;;;;;;;3.00;2.80;;;;;;;;;;5037288;28;20029;-68
2023/08/22 07:41:54;;;;;;;2.70;2.50;;;;;;;;;;5037377;28;20458;-68
2023/08/22 07:44:19;;;;;;;3.00;2.70;;;;;;;;;;5019742;28;20396;-68
2023/08/22 07:46:45;;;;;;;3.75;2.58;;;;;;;;;;5037039;28;20033;-60
2023/08/22 07:49:10;;;;;;;4.85;2.90;;;;;;;;;;5037323;28;20032;-68
2023/08/22 07:51:36;;;;;;;3.13;2.60;;;;;;;;;;5037009;28;20041;-68
2023/08/22 07:54:02;;;;;;;5.28;3.65;;;;;;;;;;5037253;28;20029;-68
2023/08/22 07:56:27;;;;;;;4.75;3.97;;;;;;;;;;5037709;28;20053;-68
2023/08/22 07:58:52;;;;;;;4.22;3.92;;;;;;;;;;5036963;28;20037;-60
2023/08/22 08:01:18;;;;;;;5.63;5.13;;;;;;;;;;5037041;28;20040;-60
2023/08/22 08:03:43;;;;;;;5.30;4.80;;;;;;;;;;5019394;28;20030;-60
2023/08/22 08:06:09;;;;;;;8.18;4.55;;;;;;;;;;5036691;28;20018;-68
2023/08/22 08:08:34;;;;;;;5.80;5.22;;;;;;;;;;5018804;28;20069;-68
2023/08/22 08:11:00;;;;;;;7.70;6.15;;;;;;;;;;5019126;28;20037;-61
2023/08/22 08:13:25;;;;;;;9.05;6.43;;;;;;;;;;5036761;28;20061;-60
2023/08/22 08:15:50;;;;;;;8.35;6.18;;;;;;;;;;5036637;28;20065;-61
2023/08/22 08:18:16;;;;;;;5.88;5.28;;;;;;;;;;5030025;28;20088;-68
2023/08/22 08:20:42;;;;;;;5.78;5.25;;;;;;;;;;5033969;28;20044;-68
2023/08/22 08:23:07;;;;;;;10.07;6.93;;;;;;;;;;5036606;28;20030;-60
2023/08/22 08:25:32;;;;;;;12.10;7.10;;;;;;;;;;5036598;28;20021;-61
2023/08/22 08:27:58;;;;;;;10.70;8.82;;;;;;;;;;5056000;23;20084;-61
2023/08/22 08:30:24;;;;;;;10.95;7.38;;;;;;;;;;5056467;23;20059;-59
2023/08/22 08:36:18;;;;;;;8.45;6.03;;;;;;;;;;5036362;28;20060;-59
2023/08/22 08:38:44;;;;;;;7.45;6.32;;;;;;;;;;5048412;23;21029;-59
2023/08/22 08:41:10;;;;;;;17.45;10.82;;;;;;;;;;5048465;23;20061;-60
2023/08/22 08:43:35;;;;;;;7.38;5.65;;;;;;;;;;5048163;23;20446;-66
2023/08/22 08:46:01;;;;;;;7.43;4.93;;;;;;;;;;5035980;28;20056;-60
2023/08/22 08:48:28;;;;;;;8.43;6.03;;;;;;;;;;5035938;28;20029;-59
2023/08/22 08:51:02;;;;;;;8.93;6.20;;;;;;;;;;5020193;23;20089;-59
2023/08/22 08:53:29;;;;;;;5.63;5.13;;;;;;;;;;4999302;23;21128;-60
2023/08/22 08:55:55;;;;;;;6.30;4.13;;;;;;;;;;5046855;23;20050;-59
2023/08/22 08:58:21;;;;;;;5.55;4.30;;;;;;;;;;5035088;28;20048;-59
2023/08/22 09:01:18;;;;;;;5.25;4.75;;;;;;;;;;5063985;23;20061;-59
2023/08/22 09:03:44;;;;;;;6.88;5.25;;;;;;;;;;5024734;23;20054;-67
2023/08/22 09:09:12;;;;;;;5.37;4.80;;;;;;;;;;5054535;23;20076;-67
2023/08/22 09:11:49;;;;;;;5.25;4.75;;;;;;;;;;5017979;23;20104;-67
2023/08/22 09:14:22;;;;;;;6.63;4.72;;;;;;;;;;5052354;23;20481;-66
2023/08/22 09:16:50;;;;;;;5.18;4.70;;;;;;;;;;5047831;23;20165;-67
2023/08/22 09:19:16;;;;;;;5.93;4.72;;;;;;;;;;5047691;23;20045;-66
2023/08/22 09:24:24;;;;;;;5.57;4.93;;;;;;;;;;5012458;23;20041;-69
2023/08/22 09:26:50;;;;;;;5.78;5.28;;;;;;;;;;5047294;23;20096;-62
2023/08/22 09:29:23;;;;;;;5.15;4.47;;;;;;;;;;5045649;23;20058;-69
2023/08/22 09:31:49;;;;;;;8.05;4.63;;;;;;;;;;5032974;28;20049;-63
2023/08/22 09:34:14;;;;;;;5.38;4.38;;;;;;;;;;5033144;28;20014;-62
2023/08/22 09:36:44;;;;;;;5.07;4.57;;;;;;;;;;5033751;28;20433;-59
2023/08/22 09:39:12;;;;;;;6.45;4.55;;;;;;;;;;5033995;28;20048;-59
2023/08/22 09:41:37;;;;;;;5.03;4.53;;;;;;;;;;5033634;28;20044;-59
2023/08/22 09:44:04;;;;;;;4.85;4.45;;;;;;;;;;5033172;28;20072;-59
2023/08/22 09:46:29;;;;;;;7.75;3.90;;;;;;;;;;5033005;28;20131;-59
2023/08/22 09:48:59;;;;;;;3.65;3.35;;;;;;;;;;5032901;28;20037;-59
2023/08/22 09:51:25;;;;;;;;;;;;;;;;;;5033341;28;20033;-59
2023/08/22 09:53:53;;;;;;;5.15;3.72;;;;;;;;;;5033820;28;20375;-59
2023/08/22 09:56:21;;;;;;;4.57;4.18;;;;;;;;;;5033964;28;20020;-59
2023/08/22 09:58:47;;;;;;;4.85;4.35;;;;;;;;;;5034104;28;20037;-59
2023/08/22 10:01:14;;;;;;;5.78;4.32;;;;;;;;;;5034091;28;20032;-59
2023/08/22 10:03:40;;;;;;;5.22;4.72;;;;;;;;;;5034458;28;20029;-60
2023/08/22 10:06:09;;;;;;;4.72;4.32;;;;;;;;;;5035060;28;20074;-59
2023/08/22 10:08:35;;;;;;;4.85;4.43;;;;;;;;;;5034226;28;20037;-60
2023/08/22 10:11:00;;;;;;;5.50;5.00;;;;;;;;;;5034484;28;20116;-60
2023/08/22 10:13:27;;;;;;;6.70;5.15;;;;;;;;;;5033888;28;20116;-60
2023/08/22 10:15:52;;;;;;;8.43;5.68;;;;;;;;;;5032268;28;20029;-60
2023/08/22 10:18:22;;;;;;;6.22;4.85;;;;;;;;;;5034047;28;20052;-60
2023/08/22 10:20:47;;;;;;;6.13;4.80;;;;;;;;;;5016597;28;20030;-60
2023/08/22 10:23:14;;;;;;;7.20;4.80;;;;;;;;;;5034713;28;20009;-60
2023/08/22 10:25:45;;;;;;;5.47;4.72;;;;;;;;;;5034525;28;20416;-60
2023/08/22 10:28:10;;;;;;;;;;;;;;;;;;5016542;28;20036;-59
2023/08/22 10:30:55;;;;;;;4.78;4.38;;;;;;;;;;5032793;28;20287;-59
2023/08/22 10:33:28;;;;;;;4.70;4.20;;;;;;;;;;5033409;28;20029;-59
2023/08/22 10:36:02;;;;;;;5.90;4.80;;;;;;;;;;5034551;28;20041;-59
2023/08/22 10:38:28;;;;;;;5.85;4.10;;;;;;;;;;5033866;28;20075;-60
2023/08/22 10:40:54;;;;;;;4.75;3.95;;;;;;;;;;5034359;28;20108;-59
2023/08/22 10:43:34;;;;;;;6.07;4.07;;;;;;;;;;5027778;28;20034;-59
2023/08/22 10:45:59;;;;;;;4.00;3.60;;;;;;;;;;4999823;28;20029;-59
2023/08/22 10:48:25;;;;;;;4.95;3.60;;;;;;;;;;5034442;28;20268;-60
2023/08/22 10:50:51;;;;;;;5.10;3.80;;;;;;;;;;5034327;28;20029;-60
2023/08/22 10:53:18;;;;;;;4.30;3.92;;;;;;;;;;5033003;28;20108;-60
2023/08/22 10:55:43;;;;;;;5.95;4.00;;;;;;;;;;5033812;28;20040;-60
2023/08/22 10:58:28;;;;;;;10.32;4.35;;;;;;;;;;5015852;28;20115;-59
2023/08/22 11:00:55;;;;;;;4.43;4.03;;;;;;;;;;5033628;28;20385;-59
2023/08/22 11:03:20;;;;;;;4.20;3.90;;;;;;;;;;5016155;28;20120;-60
2023/08/22 11:05:47;;;;;;;4.35;3.92;;;;;;;;;;5015952;28;20061;-59
2023/08/22 11:08:12;;;;;;;4.45;4.10;;;;;;;;;;5033595;28;20013;-59
2023/08/22 11:10:39;;;;;;;4.57;4.13;;;;;;;;;;5015777;28;20492;-59
2023/08/22 11:13:07;;;;;;;6.30;4.20;;;;;;;;;;5033566;28;20033;-59
2023/08/22 11:15:33;;;;;;;4.40;4.05;;;;;;;;;;5015834;28;20393;-59
2023/08/22 11:17:58;;;;;;;4.28;3.88;;;;;;;;;;5033434;28;20034;-59
2023/08/22 11:20:24;;;;;;;5.22;3.85;;;;;;;;;;5033377;28;20040;-59
2023/08/22 11:22:50;;;;;;;5.65;4.20;;;;;;;;;;5032178;28;20033;-59
2023/08/22 11:25:21;;;;;;;5.25;4.18;;;;;;;;;;5033393;28;20101;-60
2023/08/22 11:27:47;;;;;;;7.65;4.18;;;;;;;;;;5015773;28;20033;-60
2023/08/22 11:30:12;;;;;;;4.03;3.72;;;;;;;;;;5032240;28;20056;-59
2023/08/22 11:32:40;;;;;;;3.95;3.67;;;;;;;;;;5033454;28;20022;-60
2023/08/22 11:35:06;;;;;;;4.25;3.85;;;;;;;;;;5015773;28;20388;-60
2023/08/22 11:37:32;;;;;;;4.38;3.72;;;;;;;;;;5033133;28;20077;-59
2023/08/22 11:39:58;;;;;;;5.13;4.15;;;;;;;;;;5014193;28;20428;-60
2023/08/22 11:42:24;;;;;;;4.93;4.10;;;;;;;;;;5033149;28;20029;-59
2023/08/22 11:45:08;;;;;;;6.22;3.92;;;;;;;;;;5033896;28;20075;-60
2023/08/22 11:47:40;;;;;;;4.35;3.85;;;;;;;;;;5033409;28;20095;-60
2023/08/22 11:50:06;;;;;;;3.88;3.42;;;;;;;;;;5033297;28;20033;-60
2023/08/22 11:52:32;;;;;;;3.97;3.58;;;;;;;;;;5033834;28;20017;-60
2023/08/22 11:55:05;;;;;;;3.50;3.30;;;;;;;;;;5015907;28;20428;-60
2023/08/22 11:57:31;;;;;;;4.25;3.83;;;;;;;;;;5033472;28;20060;-60
2023/08/22 11:59:58;;;;;;;4.18;3.78;;;;;;;;;;5016117;28;20547;-60
2023/08/22 12:02:23;;;;;;;4.10;3.78;;;;;;;;;;5033729;28;20396;-60
2023/08/22 12:04:49;;;;;;;3.90;3.60;;;;;;;;;;5017655;28;20067;-62
2023/08/22 12:07:15;;;;;;;3.63;3.35;;;;;;;;;;5037217;28;20061;-62
2023/08/22 12:09:40;;;;;;;3.72;3.40;;;;;;;;;;5036814;28;20021;-62
2023/08/22 12:12:12;;;;;;;4.05;3.72;;;;;;;;;;5037166;28;20060;-69
2023/08/22 12:14:37;;;;;;;4.18;3.80;;;;;;;;;;5036229;28;20025;-69
2023/08/22 12:17:03;;;;;;;4.03;3.60;;;;;;;;;;5036918;28;20064;-69
2023/08/22 12:19:30;;;;;;;4.35;3.55;;;;;;;;;;5019450;28;20346;-69
2023/08/22 12:21:57;;;;;;;23.50;4.07;;;;;;;;;;5037063;28;20024;-69
2023/08/22 12:24:23;;;;;;;5.75;4.30;;;;;;;;;;5036196;28;20025;-62
2023/08/22 12:26:49;;;;;;;7.90;4.25;;;;;;;;;;5036235;28;20030;-62
2023/08/22 12:29:14;;;;;;;4.45;3.83;;;;;;;;;;5036133;28;20179;-62
2023/08/22 12:31:39;;;;;;;11.90;4.47;;;;;;;;;;5036585;28;20026;-62
2023/08/22 12:34:05;;;;;;;6.10;4.30;;;;;;;;;;5036542;28;20465;-62
2023/08/22 12:36:30;;;;;;;6.25;4.45;;;;;;;;;;5036238;28;20025;-61
2023/08/22 12:38:56;;;;;;;5.38;4.55;;;;;;;;;;5036000;28;20388;-62
2023/08/22 12:41:21;;;;;;;5.65;3.97;;;;;;;;;;5036239;28;20020;-62
2023/08/22 12:43:46;;;;;;;4.78;3.90;;;;;;;;;;5036419;28;20026;-62
2023/08/22 12:46:12;;;;;;;5.35;4.63;;;;;;;;;;5036209;28;20026;-62
2023/08/22 12:48:38;;;;;;;6.32;4.75;;;;;;;;;;5015819;28;20121;-62
2023/08/22 12:51:03;;;;;;;5.03;4.50;;;;;;;;;;5032012;28;20086;-62
2023/08/22 12:53:28;;;;;;;7.65;5.15;;;;;;;;;;5017913;28;20029;-62
2023/08/22 12:55:54;;;;;;;7.65;4.35;;;;;;;;;;5018112;28;20071;-62
2023/08/22 12:58:19;;;;;;;7.40;4.93;;;;;;;;;;5036415;28;20159;-62
2023/08/22 13:00:44;;;;;;;6.93;4.88;;;;;;;;;;5036186;28;20457;-62
2023/08/22 13:03:10;;;;;;;5.30;4.80;;;;;;;;;;5036349;28;20103;-62
2023/08/22 13:05:36;;;;;;;6.38;4.40;;;;;;;;;;5035714;28;20022;-62
2023/08/22 13:08:01;;;;;;;6.22;4.82;;;;;;;;;;5036323;28;20118;-63
2023/08/22 13:10:26;;;;;;;8.75;5.15;;;;;;;;;;5036270;28;20032;-62
2023/08/22 13:12:52;;;;;;;5.68;4.15;;;;;;;;;;5036221;28;20029;-62
2023/08/22 13:15:17;;;;;;;4.43;4.07;;;;;;;;;;5035464;28;20113;-61
2023/08/22 13:17:43;;;;;;;5.97;4.18;;;;;;;;;;5035615;28;20040;-61
2023/08/22 13:20:11;;;;;;;9.05;5.28;;;;;;;;;;5035333;28;20117;-61
2023/08/22 13:22:36;;;;;;;5.13;4.70;;;;;;;;;;5035825;28;20026;-61
2023/08/22 13:25:03;;;;;;;7.72;4.55;;;;;;;;;;5035543;28;20445;-61
2023/08/22 13:27:28;;;;;;;4.60;4.20;;;;;;;;;;5017742;28;20030;-61
2023/08/22 13:29:54;;;;;;;5.50;4.53;;;;;;;;;;5035668;28;20067;-61
2023/08/22 13:32:21;;;;;;;8.82;5.18;;;;;;;;;;5014533;28;20127;-66
2023/08/22 13:34:46;;;;;;;6.28;4.95;;;;;;;;;;5035080;28;20033;-66
2023/08/22 13:37:12;;;;;;;6.43;4.60;;;;;;;;;;5035523;28;20143;-66
2023/08/22 13:39:37;;;;;;;6.50;4.20;;;;;;;;;;5034860;28;20068;-66
2023/08/22 13:42:04;;;;;;;4.95;4.40;;;;;;;;;;5035382;28;20052;-66
2023/08/22 13:44:29;;;;;;;5.00;4.47;;;;;;;;;;5017955;28;20071;-67
2023/08/22 13:46:54;;;;;;;6.65;4.20;;;;;;;;;;5034845;28;20029;-67
2023/08/22 13:49:19;;;;;;;4.53;4.05;;;;;;;;;;5035325;28;20080;-67
2023/08/22 13:51:45;;;;;;;6.68;4.70;;;;;;;;;;5017200;28;20037;-67
2023/08/22 13:54:10;;;;;;;4.88;3.92;;;;;;;;;;5034965;28;20035;-66
2023/08/22 13:56:36;;;;;;;4.22;3.83;;;;;;;;;;5035001;28;20087;-66
2023/08/22 13:59:01;;;;;;;7.43;4.57;;;;;;;;;;5035186;28;20449;-67
2023/08/22 14:01:28;;;;;;;4.53;4.10;;;;;;;;;;5035170;28;20033;-67
2023/08/22 14:03:54;;;;;;;5.05;4.30;;;;;;;;;;5035097;28;20381;-67
2023/08/22 14:06:20;;;;;;;5.18;4.55;;;;;;;;;;5035363;28;20453;-67
2023/08/22 14:08:47;;;;;;;4.88;4.38;;;;;;;;;;5017507;28;20489;-67
2023/08/22 14:11:12;;;;;;;5.75;4.63;;;;;;;;;;5034903;28;20076;-66
2023/08/22 14:13:37;;;;;;;5.35;4.75;;;;;;;;;;5017093;28;20064;-67
2023/08/22 14:16:03;;;;;;;6.93;4.68;;;;;;;;;;5034767;28;20481;-67
2023/08/22 14:18:28;;;;;;;5.30;4.35;;;;;;;;;;5034777;28;20358;-67
2023/08/22 14:20:54;;;;;;;4.28;3.97;;;;;;;;;;5034584;28;20030;-67
2023/08/22 14:23:19;;;;;;;4.47;4.10;;;;;;;;;;5034809;28;20442;-67
2023/08/22 14:25:46;;;;;;;4.32;3.75;;;;;;;;;;5034323;28;20032;-67
2023/08/22 14:28:12;;;;;;;4.43;4.03;;;;;;;;;;5033594;28;20370;-67
2023/08/22 14:30:37;;;;;;;5.25;4.10;;;;;;;;;;5034167;28;20036;-67
2023/08/22 14:33:03;;;;;;;5.05;3.80;;;;;;;;;;5032846;28;20093;-67
2023/08/22 14:35:28;;;;;;;4.07;3.78;;;;;;;;;;5033405;28;20025;-67
2023/08/22 14:37:56;;;;;;;5.47;3.83;;;;;;;;;;5015619;28;20064;-67
2023/08/22 14:40:22;;;;;;;5.40;3.85;;;;;;;;;;5015977;28;20040;-67
2023/08/22 14:42:47;;;;;;;3.95;3.65;;;;;;;;;;5033378;28;20385;-67
2023/08/22 14:45:12;;;;;;;4.53;3.60;;;;;;;;;;5033440;28;20025;-67
2023/08/22 14:47:38;;;;;;;4.47;3.90;;;;;;;;;;5016043;28;20029;-67